sensor_id;sensor_type;location;lat;lon;timestamp;P1;durP1;ratioP1;P2;durP2;ratioP2
52934;SDS011;38802;50.198;19.796;2023-10-31T00:00:01;5.40;;;3.10;;
52934;SDS011;38802;50.198;19.796;2023-10-31T00:02:31;4.50;;;3.30;;
52934;SDS011;38802;50.198;19.796;2023-10-31T00:05:00;5.40;;;3.20;;
52934;SDS011;38802;50.198;19.796;2023-10-31T00:07:28;5.00;;;3.40;;
52934;SDS011;38802;50.198;19.796;2023-10-31T00:09:57;5.70;;;3.00;;
52934;SDS011;38802;50.198;19.796;2023-10-31T00:12:25;7.70;;;3.30;;
52934;SDS011;38802;50.198;19.796;2023-10-31T00:14:53;5.90;;;3.10;;
52934;SDS011;38802;50.198;19.796;2023-10-31T00:17:21;6.70;;;2.90;;
52934;SDS011;38802;50.198;19.796;2023-10-31T00:19:49;14.60;;;3.00;;
52934;SDS011;38802;50.198;19.796;2023-10-31T00:22:18;7.00;;;3.10;;
52934;SDS011;38802;50.198;19.796;2023-10-31T00:24:47;7.60;;;2.80;;
52934;SDS011;38802;50.198;19.796;2023-10-31T00:27:15;6.50;;;2.50;;
52934;SDS011;38802;50.198;19.796;2023-10-31T00:29:43;5.20;;;2.30;;
52934;SDS011;38802;50.198;19.796;2023-10-31T00:32:11;3.50;;;2.60;;
52934;SDS011;38802;50.198;19.796;2023-10-31T00:34:41;4.50;;;2.00;;
52934;SDS011;38802;50.198;19.796;2023-10-31T00:37:09;5.70;;;2.30;;
52934;SDS011;38802;50.198;19.796;2023-10-31T00:39:37;3.80;;;2.40;;
52934;SDS011;38802;50.198;19.796;2023-10-31T00:42:06;6.70;;;2.10;;
52934;SDS011;38802;50.198;19.796;2023-10-31T00:44:34;4.80;;;2.40;;
52934;SDS011;38802;50.198;19.796;2023-10-31T00:47:03;3.80;;;2.10;;
52934;SDS011;38802;50.198;19.796;2023-10-31T00:49:33;4.80;;;2.90;;
52934;SDS011;38802;50.198;19.796;2023-10-31T00:52:03;9.50;;;2.90;;
52934;SDS011;38802;50.198;19.796;2023-10-31T00:54:31;6.20;;;2.40;;
52934;SDS011;38802;50.198;19.796;2023-10-31T00:57:00;3.30;;;2.20;;
52934;SDS011;38802;50.198;19.796;2023-10-31T00:59:28;5.60;;;2.40;;
52934;SDS011;38802;50.198;19.796;2023-10-31T01:01:56;4.90;;;2.60;;
52934;SDS011;38802;50.198;19.796;2023-10-31T01:04:25;4.20;;;2.60;;
52934;SDS011;38802;50.198;19.796;2023-10-31T01:06:53;5.80;;;2.60;;
52934;SDS011;38802;50.198;19.796;2023-10-31T01:09:22;5.50;;;3.00;;
52934;SDS011;38802;50.198;19.796;2023-10-31T01:11:50;4.30;;;2.50;;
52934;SDS011;38802;50.198;19.796;2023-10-31T01:14:18;8.90;;;2.70;;
52934;SDS011;38802;50.198;19.796;2023-10-31T01:16:46;6.50;;;2.10;;
52934;SDS011;38802;50.198;19.796;2023-10-31T01:19:14;4.90;;;2.10;;
52934;SDS011;38802;50.198;19.796;2023-10-31T01:21:43;6.10;;;2.90;;
52934;SDS011;38802;50.198;19.796;2023-10-31T01:24:11;6.40;;;2.90;;
52934;SDS011;38802;50.198;19.796;2023-10-31T01:26:39;9.70;;;3.10;;
52934;SDS011;38802;50.198;19.796;2023-10-31T01:29:07;8.90;;;2.90;;
52934;SDS011;38802;50.198;19.796;2023-10-31T01:31:36;6.60;;;2.80;;
52934;SDS011;38802;50.198;19.796;2023-10-31T01:34:23;3.40;;;1.90;;
52934;SDS011;38802;50.198;19.796;2023-10-31T01:36:51;4.40;;;2.40;;
52934;SDS011;38802;50.198;19.796;2023-10-31T01:39:19;4.10;;;2.40;;
52934;SDS011;38802;50.198;19.796;2023-10-31T01:41:48;3.90;;;2.40;;
52934;SDS011;38802;50.198;19.796;2023-10-31T01:44:16;6.20;;;2.70;;
52934;SDS011;38802;50.198;19.796;2023-10-31T01:46:44;5.00;;;2.20;;
52934;SDS011;38802;50.198;19.796;2023-10-31T01:49:13;6.50;;;2.60;;
52934;SDS011;38802;50.198;19.796;2023-10-31T01:51:41;6.10;;;2.70;;
52934;SDS011;38802;50.198;19.796;2023-10-31T01:54:10;5.50;;;2.10;;
52934;SDS011;38802;50.198;19.796;2023-10-31T01:56:38;8.00;;;3.40;;
52934;SDS011;38802;50.198;19.796;2023-10-31T01:59:08;7.90;;;2.30;;
52934;SDS011;38802;50.198;19.796;2023-10-31T02:01:38;2.50;;;1.80;;
52934;SDS011;38802;50.198;19.796;2023-10-31T02:04:09;3.30;;;2.30;;
52934;SDS011;38802;50.198;19.796;2023-10-31T02:06:37;3.00;;;1.90;;
52934;SDS011;38802;50.198;19.796;2023-10-31T02:09:06;3.20;;;1.90;;
52934;SDS011;38802;50.198;19.796;2023-10-31T02:11:34;4.80;;;1.80;;
52934;SDS011;38802;50.198;19.796;2023-10-31T02:14:03;6.90;;;2.60;;
52934;SDS011;38802;50.198;19.796;2023-10-31T02:16:31;3.80;;;2.10;;
52934;SDS011;38802;50.198;19.796;2023-10-31T02:18:59;4.70;;;1.40;;
52934;SDS011;38802;50.198;19.796;2023-10-31T02:21:27;3.50;;;1.50;;
52934;SDS011;38802;50.198;19.796;2023-10-31T02:23:58;5.10;;;1.70;;
52934;SDS011;38802;50.198;19.796;2023-10-31T02:26:31;3.20;;;1.50;;
52934;SDS011;38802;50.198;19.796;2023-10-31T02:29:00;5.30;;;1.90;;
52934;SDS011;38802;50.198;19.796;2023-10-31T02:31:29;2.30;;;1.30;;
52934;SDS011;38802;50.198;19.796;2023-10-31T02:33:58;4.50;;;1.90;;
52934;SDS011;38802;50.198;19.796;2023-10-31T02:36:26;6.30;;;1.30;;
52934;SDS011;38802;50.198;19.796;2023-10-31T02:38:54;7.50;;;2.00;;
52934;SDS011;38802;50.198;19.796;2023-10-31T02:41:22;8.30;;;1.60;;
52934;SDS011;38802;50.198;19.796;2023-10-31T02:43:51;4.20;;;1.30;;
52934;SDS011;38802;50.198;19.796;2023-10-31T02:46:19;3.50;;;1.20;;
52934;SDS011;38802;50.198;19.796;2023-10-31T02:48:48;1.80;;;1.50;;
52934;SDS011;38802;50.198;19.796;2023-10-31T02:51:16;3.30;;;1.40;;
52934;SDS011;38802;50.198;19.796;2023-10-31T02:53:44;2.60;;;1.30;;
52934;SDS011;38802;50.198;19.796;2023-10-31T02:56:13;2.90;;;1.30;;
52934;SDS011;38802;50.198;19.796;2023-10-31T02:58:41;4.30;;;1.30;;
52934;SDS011;38802;50.198;19.796;2023-10-31T03:01:09;3.10;;;1.20;;
52934;SDS011;38802;50.198;19.796;2023-10-31T03:03:37;9.50;;;1.50;;
52934;SDS011;38802;50.198;19.796;2023-10-31T03:06:06;2.90;;;1.30;;
52934;SDS011;38802;50.198;19.796;2023-10-31T03:08:34;5.80;;;1.40;;
52934;SDS011;38802;50.198;19.796;2023-10-31T03:11:02;4.00;;;1.20;;
52934;SDS011;38802;50.198;19.796;2023-10-31T03:13:30;8.20;;;1.30;;
52934;SDS011;38802;50.198;19.796;2023-10-31T03:15:58;2.90;;;1.30;;
52934;SDS011;38802;50.198;19.796;2023-10-31T03:18:26;9.50;;;1.70;;
52934;SDS011;38802;50.198;19.796;2023-10-31T03:20:54;2.10;;;1.10;;
52934;SDS011;38802;50.198;19.796;2023-10-31T03:23:23;1.90;;;1.10;;
52934;SDS011;38802;50.198;19.796;2023-10-31T03:25:51;4.00;;;1.30;;
52934;SDS011;38802;50.198;19.796;2023-10-31T03:28:19;4.20;;;1.20;;
52934;SDS011;38802;50.198;19.796;2023-10-31T03:30:51;4.70;;;1.30;;
52934;SDS011;38802;50.198;19.796;2023-10-31T03:33:19;2.70;;;1.10;;
52934;SDS011;38802;50.198;19.796;2023-10-31T03:35:47;3.50;;;1.40;;
52934;SDS011;38802;50.198;19.796;2023-10-31T03:38:15;1.80;;;1.30;;
52934;SDS011;38802;50.198;19.796;2023-10-31T03:40:43;2.90;;;1.20;;
52934;SDS011;38802;50.198;19.796;2023-10-31T03:43:12;4.80;;;1.10;;
52934;SDS011;38802;50.198;19.796;2023-10-31T03:45:40;2.20;;;1.10;;
52934;SDS011;38802;50.198;19.796;2023-10-31T03:48:09;6.00;;;1.10;;
52934;SDS011;38802;50.198;19.796;2023-10-31T03:50:38;2.70;;;1.40;;
52934;SDS011;38802;50.198;19.796;2023-10-31T03:53:07;3.60;;;1.40;;
52934;SDS011;38802;50.198;19.796;2023-10-31T03:55:35;5.80;;;1.30;;
52934;SDS011;38802;50.198;19.796;2023-10-31T03:58:03;1.70;;;1.30;;
52934;SDS011;38802;50.198;19.796;2023-10-31T04:00:31;3.70;;;1.50;;
52934;SDS011;38802;50.198;19.796;2023-10-31T04:02:59;4.20;;;1.20;;
52934;SDS011;38802;50.198;19.796;2023-10-31T04:05:29;2.60;;;1.00;;
52934;SDS011;38802;50.198;19.796;2023-10-31T04:07:57;2.50;;;1.20;;
52934;SDS011;38802;50.198;19.796;2023-10-31T04:10:26;5.00;;;1.40;;
52934;SDS011;38802;50.198;19.796;2023-10-31T04:12:54;2.40;;;1.30;;
52934;SDS011;38802;50.198;19.796;2023-10-31T04:15:22;3.60;;;1.10;;
52934;SDS011;38802;50.198;19.796;2023-10-31T04:17:50;5.20;;;1.00;;
52934;SDS011;38802;50.198;19.796;2023-10-31T04:20:18;3.20;;;1.10;;
52934;SDS011;38802;50.198;19.796;2023-10-31T04:22:46;2.80;;;1.40;;
52934;SDS011;38802;50.198;19.796;2023-10-31T04:25:14;5.60;;;1.30;;
52934;SDS011;38802;50.198;19.796;2023-10-31T04:27:43;3.70;;;1.40;;
52934;SDS011;38802;50.198;19.796;2023-10-31T04:30:11;4.40;;;1.30;;
52934;SDS011;38802;50.198;19.796;2023-10-31T04:32:42;4.90;;;1.50;;
52934;SDS011;38802;50.198;19.796;2023-10-31T04:35:10;4.80;;;1.10;;
52934;SDS011;38802;50.198;19.796;2023-10-31T04:37:38;4.90;;;1.20;;
52934;SDS011;38802;50.198;19.796;2023-10-31T04:40:07;7.00;;;1.30;;
52934;SDS011;38802;50.198;19.796;2023-10-31T04:42:35;2.50;;;1.40;;
52934;SDS011;38802;50.198;19.796;2023-10-31T04:45:03;3.10;;;1.30;;
52934;SDS011;38802;50.198;19.796;2023-10-31T04:47:32;2.70;;;1.40;;
52934;SDS011;38802;50.198;19.796;2023-10-31T04:50:00;8.30;;;1.20;;
52934;SDS011;38802;50.198;19.796;2023-10-31T04:52:28;3.40;;;1.60;;
52934;SDS011;38802;50.198;19.796;2023-10-31T04:54:57;4.20;;;1.40;;
52934;SDS011;38802;50.198;19.796;2023-10-31T04:57:25;3.60;;;1.10;;
52934;SDS011;38802;50.198;19.796;2023-10-31T04:59:53;2.30;;;1.20;;
52934;SDS011;38802;50.198;19.796;2023-10-31T05:02:22;4.80;;;1.40;;
52934;SDS011;38802;50.198;19.796;2023-10-31T05:04:50;4.80;;;1.30;;
52934;SDS011;38802;50.198;19.796;2023-10-31T05:07:19;2.10;;;1.00;;
52934;SDS011;38802;50.198;19.796;2023-10-31T05:09:47;5.10;;;1.50;;
52934;SDS011;38802;50.198;19.796;2023-10-31T05:12:15;5.90;;;1.50;;
52934;SDS011;38802;50.198;19.796;2023-10-31T05:14:43;2.70;;;1.10;;
52934;SDS011;38802;50.198;19.796;2023-10-31T05:17:11;3.50;;;1.60;;
52934;SDS011;38802;50.198;19.796;2023-10-31T05:19:39;2.70;;;1.10;;
52934;SDS011;38802;50.198;19.796;2023-10-31T05:22:08;3.90;;;1.40;;
52934;SDS011;38802;50.198;19.796;2023-10-31T05:24:36;5.10;;;1.80;;
52934;SDS011;38802;50.198;19.796;2023-10-31T05:27:04;7.30;;;1.50;;
52934;SDS011;38802;50.198;19.796;2023-10-31T05:29:33;4.50;;;1.20;;
52934;SDS011;38802;50.198;19.796;2023-10-31T05:32:01;5.80;;;1.30;;
52934;SDS011;38802;50.198;19.796;2023-10-31T05:34:30;3.60;;;1.60;;
52934;SDS011;38802;50.198;19.796;2023-10-31T05:36:58;7.40;;;1.10;;
52934;SDS011;38802;50.198;19.796;2023-10-31T05:39:25;4.90;;;1.30;;
52934;SDS011;38802;50.198;19.796;2023-10-31T05:41:54;4.40;;;1.60;;
52934;SDS011;38802;50.198;19.796;2023-10-31T05:44:22;3.40;;;1.10;;
52934;SDS011;38802;50.198;19.796;2023-10-31T05:46:50;2.20;;;1.60;;
52934;SDS011;38802;50.198;19.796;2023-10-31T05:49:18;5.40;;;1.20;;
52934;SDS011;38802;50.198;19.796;2023-10-31T05:51:53;4.90;;;1.30;;
52934;SDS011;38802;50.198;19.796;2023-10-31T05:54:21;6.40;;;1.70;;
52934;SDS011;38802;50.198;19.796;2023-10-31T05:56:49;3.50;;;1.40;;
52934;SDS011;38802;50.198;19.796;2023-10-31T05:59:17;3.60;;;1.40;;
52934;SDS011;38802;50.198;19.796;2023-10-31T06:01:45;3.30;;;1.40;;
52934;SDS011;38802;50.198;19.796;2023-10-31T06:04:13;3.70;;;1.10;;
52934;SDS011;38802;50.198;19.796;2023-10-31T06:06:41;3.50;;;1.40;;
52934;SDS011;38802;50.198;19.796;2023-10-31T06:09:09;3.20;;;1.30;;
52934;SDS011;38802;50.198;19.796;2023-10-31T06:11:40;6.70;;;1.50;;
52934;SDS011;38802;50.198;19.796;2023-10-31T06:14:10;2.70;;;1.20;;
52934;SDS011;38802;50.198;19.796;2023-10-31T06:16:42;6.80;;;1.80;;
52934;SDS011;38802;50.198;19.796;2023-10-31T06:19:12;3.80;;;1.70;;
52934;SDS011;38802;50.198;19.796;2023-10-31T06:21:40;5.20;;;1.60;;
52934;SDS011;38802;50.198;19.796;2023-10-31T06:24:08;5.30;;;1.80;;
52934;SDS011;38802;50.198;19.796;2023-10-31T06:26:37;2.10;;;1.40;;
52934;SDS011;38802;50.198;19.796;2023-10-31T06:29:05;3.50;;;1.50;;
52934;SDS011;38802;50.198;19.796;2023-10-31T06:31:53;3.60;;;1.40;;
52934;SDS011;38802;50.198;19.796;2023-10-31T06:34:21;6.80;;;1.60;;
52934;SDS011;38802;50.198;19.796;2023-10-31T06:36:49;5.70;;;1.70;;
52934;SDS011;38802;50.198;19.796;2023-10-31T06:39:20;3.90;;;1.40;;
52934;SDS011;38802;50.198;19.796;2023-10-31T06:41:52;8.00;;;1.50;;
52934;SDS011;38802;50.198;19.796;2023-10-31T06:44:22;4.20;;;1.70;;
52934;SDS011;38802;50.198;19.796;2023-10-31T06:46:50;6.50;;;1.50;;
52934;SDS011;38802;50.198;19.796;2023-10-31T06:49:18;3.40;;;1.40;;
52934;SDS011;38802;50.198;19.796;2023-10-31T06:51:47;2.00;;;1.40;;
52934;SDS011;38802;50.198;19.796;2023-10-31T06:54:15;3.50;;;1.80;;
52934;SDS011;38802;50.198;19.796;2023-10-31T06:56:43;4.90;;;1.10;;
52934;SDS011;38802;50.198;19.796;2023-10-31T06:59:11;5.20;;;1.10;;
52934;SDS011;38802;50.198;19.796;2023-10-31T07:01:40;3.50;;;1.60;;
52934;SDS011;38802;50.198;19.796;2023-10-31T07:04:08;5.90;;;2.20;;
52934;SDS011;38802;50.198;19.796;2023-10-31T07:06:36;4.00;;;1.60;;
52934;SDS011;38802;50.198;19.796;2023-10-31T07:09:04;3.80;;;1.40;;
52934;SDS011;38802;50.198;19.796;2023-10-31T07:11:33;3.40;;;1.20;;
52934;SDS011;38802;50.198;19.796;2023-10-31T07:14:02;4.30;;;1.10;;
52934;SDS011;38802;50.198;19.796;2023-10-31T07:16:31;6.40;;;1.30;;
52934;SDS011;38802;50.198;19.796;2023-10-31T07:19:00;5.30;;;1.30;;
52934;SDS011;38802;50.198;19.796;2023-10-31T07:21:28;5.00;;;1.30;;
52934;SDS011;38802;50.198;19.796;2023-10-31T07:23:56;2.50;;;1.20;;
52934;SDS011;38802;50.198;19.796;2023-10-31T07:26:24;3.10;;;1.60;;
52934;SDS011;38802;50.198;19.796;2023-10-31T07:28:54;4.30;;;1.40;;
52934;SDS011;38802;50.198;19.796;2023-10-31T07:31:22;3.50;;;1.40;;
52934;SDS011;38802;50.198;19.796;2023-10-31T07:33:51;3.80;;;1.30;;
52934;SDS011;38802;50.198;19.796;2023-10-31T07:36:19;2.80;;;1.50;;
52934;SDS011;38802;50.198;19.796;2023-10-31T07:38:47;4.00;;;1.40;;
52934;SDS011;38802;50.198;19.796;2023-10-31T07:41:16;3.10;;;1.40;;
52934;SDS011;38802;50.198;19.796;2023-10-31T07:43:44;3.30;;;1.50;;
52934;SDS011;38802;50.198;19.796;2023-10-31T07:46:12;2.70;;;1.70;;
52934;SDS011;38802;50.198;19.796;2023-10-31T07:48:40;6.70;;;1.30;;
52934;SDS011;38802;50.198;19.796;2023-10-31T07:51:08;2.50;;;1.20;;
52934;SDS011;38802;50.198;19.796;2023-10-31T07:53:36;3.90;;;1.20;;
52934;SDS011;38802;50.198;19.796;2023-10-31T07:56:05;5.30;;;1.30;;
52934;SDS011;38802;50.198;19.796;2023-10-31T07:58:33;2.90;;;1.90;;
52934;SDS011;38802;50.198;19.796;2023-10-31T08:01:01;2.00;;;1.30;;
52934;SDS011;38802;50.198;19.796;2023-10-31T08:03:29;3.20;;;1.50;;
52934;SDS011;38802;50.198;19.796;2023-10-31T08:05:57;3.70;;;1.30;;
52934;SDS011;38802;50.198;19.796;2023-10-31T08:08:28;5.10;;;1.60;;
52934;SDS011;38802;50.198;19.796;2023-10-31T08:10:56;6.70;;;1.30;;
52934;SDS011;38802;50.198;19.796;2023-10-31T08:13:26;1.90;;;1.10;;
52934;SDS011;38802;50.198;19.796;2023-10-31T08:15:54;5.80;;;1.60;;
52934;SDS011;38802;50.198;19.796;2023-10-31T08:18:23;10.40;;;1.60;;
52934;SDS011;38802;50.198;19.796;2023-10-31T08:20:51;7.10;;;2.00;;
52934;SDS011;38802;50.198;19.796;2023-10-31T08:23:20;3.40;;;2.00;;
52934;SDS011;38802;50.198;19.796;2023-10-31T08:25:48;5.50;;;2.10;;
52934;SDS011;38802;50.198;19.796;2023-10-31T08:28:17;6.70;;;1.80;;
52934;SDS011;38802;50.198;19.796;2023-10-31T08:30:45;2.80;;;1.80;;
52934;SDS011;38802;50.198;19.796;2023-10-31T08:33:14;2.80;;;1.80;;
52934;SDS011;38802;50.198;19.796;2023-10-31T08:35:42;3.90;;;1.30;;
52934;SDS011;38802;50.198;19.796;2023-10-31T08:38:11;3.80;;;1.90;;
52934;SDS011;38802;50.198;19.796;2023-10-31T08:40:53;5.40;;;1.80;;
52934;SDS011;38802;50.198;19.796;2023-10-31T08:43:21;8.70;;;1.70;;
52934;SDS011;38802;50.198;19.796;2023-10-31T08:45:50;5.00;;;2.10;;
52934;SDS011;38802;50.198;19.796;2023-10-31T08:48:18;3.30;;;1.40;;
52934;SDS011;38802;50.198;19.796;2023-10-31T08:50:47;3.60;;;1.60;;
52934;SDS011;38802;50.198;19.796;2023-10-31T08:53:15;4.70;;;1.70;;
52934;SDS011;38802;50.198;19.796;2023-10-31T08:55:43;5.30;;;1.50;;
52934;SDS011;38802;50.198;19.796;2023-10-31T08:58:12;4.60;;;1.40;;
52934;SDS011;38802;50.198;19.796;2023-10-31T09:00:43;4.80;;;1.80;;
52934;SDS011;38802;50.198;19.796;2023-10-31T09:03:11;4.80;;;1.50;;
52934;SDS011;38802;50.198;19.796;2023-10-31T09:05:40;5.60;;;1.40;;
52934;SDS011;38802;50.198;19.796;2023-10-31T09:08:09;5.70;;;2.10;;
52934;SDS011;38802;50.198;19.796;2023-10-31T09:10:38;3.20;;;1.80;;
52934;SDS011;38802;50.198;19.796;2023-10-31T09:13:06;2.90;;;1.40;;
52934;SDS011;38802;50.198;19.796;2023-10-31T09:15:34;4.10;;;1.60;;
52934;SDS011;38802;50.198;19.796;2023-10-31T09:18:02;13.80;;;4.20;;
52934;SDS011;38802;50.198;19.796;2023-10-31T09:20:30;4.70;;;2.40;;
52934;SDS011;38802;50.198;19.796;2023-10-31T09:22:59;8.50;;;3.50;;
52934;SDS011;38802;50.198;19.796;2023-10-31T09:25:27;5.70;;;2.10;;
52934;SDS011;38802;50.198;19.796;2023-10-31T09:27:55;8.20;;;3.80;;
52934;SDS011;38802;50.198;19.796;2023-10-31T09:30:23;6.00;;;3.10;;
52934;SDS011;38802;50.198;19.796;2023-10-31T09:32:51;5.70;;;2.00;;
52934;SDS011;38802;50.198;19.796;2023-10-31T09:35:20;6.20;;;1.90;;
52934;SDS011;38802;50.198;19.796;2023-10-31T09:37:48;7.10;;;3.40;;
52934;SDS011;38802;50.198;19.796;2023-10-31T09:40:17;7.50;;;4.10;;
52934;SDS011;38802;50.198;19.796;2023-10-31T09:42:45;6.30;;;3.60;;
52934;SDS011;38802;50.198;19.796;2023-10-31T09:45:14;5.10;;;3.10;;
52934;SDS011;38802;50.198;19.796;2023-10-31T09:47:43;5.00;;;2.20;;
52934;SDS011;38802;50.198;19.796;2023-10-31T09:50:11;5.90;;;1.90;;
52934;SDS011;38802;50.198;19.796;2023-10-31T09:52:39;4.00;;;1.90;;
52934;SDS011;38802;50.198;19.796;2023-10-31T09:55:08;5.60;;;2.70;;
52934;SDS011;38802;50.198;19.796;2023-10-31T09:57:38;5.20;;;1.60;;
52934;SDS011;38802;50.198;19.796;2023-10-31T10:00:06;4.40;;;1.90;;
52934;SDS011;38802;50.198;19.796;2023-10-31T10:02:37;4.20;;;1.60;;
52934;SDS011;38802;50.198;19.796;2023-10-31T10:05:07;4.70;;;1.60;;
52934;SDS011;38802;50.198;19.796;2023-10-31T10:07:37;8.10;;;2.30;;
52934;SDS011;38802;50.198;19.796;2023-10-31T10:10:10;4.80;;;2.60;;
52934;SDS011;38802;50.198;19.796;2023-10-31T10:12:43;3.40;;;2.00;;
52934;SDS011;38802;50.198;19.796;2023-10-31T10:15:12;4.00;;;1.90;;
52934;SDS011;38802;50.198;19.796;2023-10-31T10:17:41;5.60;;;1.90;;
52934;SDS011;38802;50.198;19.796;2023-10-31T10:20:16;5.60;;;2.60;;
52934;SDS011;38802;50.198;19.796;2023-10-31T10:22:46;4.00;;;2.40;;
52934;SDS011;38802;50.198;19.796;2023-10-31T10:25:15;6.20;;;1.90;;
52934;SDS011;38802;50.198;19.796;2023-10-31T10:27:45;3.20;;;1.70;;
52934;SDS011;38802;50.198;19.796;2023-10-31T10:30:13;2.90;;;1.80;;
52934;SDS011;38802;50.198;19.796;2023-10-31T10:32:43;6.40;;;2.20;;
52934;SDS011;38802;50.198;19.796;2023-10-31T10:35:11;6.30;;;1.60;;
52934;SDS011;38802;50.198;19.796;2023-10-31T10:37:39;6.00;;;2.50;;
52934;SDS011;38802;50.198;19.796;2023-10-31T10:40:08;5.50;;;2.30;;
52934;SDS011;38802;50.198;19.796;2023-10-31T10:45:12;4.40;;;1.90;;
52934;SDS011;38802;50.198;19.796;2023-10-31T10:47:45;13.00;;;2.80;;
52934;SDS011;38802;50.198;19.796;2023-10-31T10:50:18;7.40;;;2.20;;
52934;SDS011;38802;50.198;19.796;2023-10-31T10:53:07;5.70;;;2.50;;
52934;SDS011;38802;50.198;19.796;2023-10-31T10:56:00;5.80;;;2.80;;
52934;SDS011;38802;50.198;19.796;2023-10-31T10:58:37;5.90;;;2.40;;
52934;SDS011;38802;50.198;19.796;2023-10-31T11:03:57;4.30;;;2.60;;
52934;SDS011;38802;50.198;19.796;2023-10-31T11:06:27;5.70;;;2.30;;
52934;SDS011;38802;50.198;19.796;2023-10-31T11:08:56;5.90;;;2.80;;
52934;SDS011;38802;50.198;19.796;2023-10-31T11:11:25;2.90;;;2.30;;
52934;SDS011;38802;50.198;19.796;2023-10-31T11:13:54;5.20;;;3.10;;
52934;SDS011;38802;50.198;19.796;2023-10-31T11:16:29;4.60;;;3.00;;
52934;SDS011;38802;50.198;19.796;2023-10-31T11:19:02;3.40;;;2.20;;
52934;SDS011;38802;50.198;19.796;2023-10-31T11:21:31;6.50;;;2.30;;
52934;SDS011;38802;50.198;19.796;2023-10-31T11:23:59;7.30;;;1.90;;
52934;SDS011;38802;50.198;19.796;2023-10-31T11:26:31;3.60;;;2.10;;
52934;SDS011;38802;50.198;19.796;2023-10-31T11:29:06;4.50;;;2.00;;
52934;SDS011;38802;50.198;19.796;2023-10-31T11:31:36;3.20;;;1.70;;
52934;SDS011;38802;50.198;19.796;2023-10-31T11:34:05;2.90;;;1.60;;
52934;SDS011;38802;50.198;19.796;2023-10-31T11:36:35;4.90;;;1.50;;
52934;SDS011;38802;50.198;19.796;2023-10-31T11:39:11;2.40;;;1.40;;
52934;SDS011;38802;50.198;19.796;2023-10-31T11:41:49;6.90;;;1.60;;
52934;SDS011;38802;50.198;19.796;2023-10-31T11:44:18;4.30;;;1.30;;
52934;SDS011;38802;50.198;19.796;2023-10-31T11:46:50;1.70;;;1.10;;
52934;SDS011;38802;50.198;19.796;2023-10-31T11:52:17;2.30;;;1.30;;
52934;SDS011;38802;50.198;19.796;2023-10-31T11:54:48;3.80;;;1.40;;
52934;SDS011;38802;50.198;19.796;2023-10-31T11:57:29;2.40;;;1.40;;
52934;SDS011;38802;50.198;19.796;2023-10-31T11:59:58;3.80;;;1.40;;
52934;SDS011;38802;50.198;19.796;2023-10-31T12:02:26;2.30;;;2.10;;
52934;SDS011;38802;50.198;19.796;2023-10-31T12:05:10;4.70;;;1.50;;
52934;SDS011;38802;50.198;19.796;2023-10-31T12:07:46;2.50;;;1.30;;
52934;SDS011;38802;50.198;19.796;2023-10-31T12:10:16;3.10;;;1.30;;
52934;SDS011;38802;50.198;19.796;2023-10-31T12:12:51;2.50;;;1.60;;
52934;SDS011;38802;50.198;19.796;2023-10-31T12:15:19;1.30;;;1.20;;
52934;SDS011;38802;50.198;19.796;2023-10-31T12:17:50;4.20;;;1.70;;
52934;SDS011;38802;50.198;19.796;2023-10-31T12:20:18;3.00;;;1.30;;
52934;SDS011;38802;50.198;19.796;2023-10-31T12:22:47;1.60;;;1.20;;
52934;SDS011;38802;50.198;19.796;2023-10-31T12:25:15;1.80;;;0.90;;
52934;SDS011;38802;50.198;19.796;2023-10-31T12:27:47;0.70;;;0.50;;
52934;SDS011;38802;50.198;19.796;2023-10-31T12:30:18;1.60;;;1.40;;
52934;SDS011;38802;50.198;19.796;2023-10-31T12:32:54;1.50;;;0.90;;
52934;SDS011;38802;50.198;19.796;2023-10-31T12:35:25;2.50;;;0.70;;
52934;SDS011;38802;50.198;19.796;2023-10-31T12:37:54;2.00;;;0.80;;
52934;SDS011;38802;50.198;19.796;2023-10-31T12:40:24;1.20;;;0.70;;
52934;SDS011;38802;50.198;19.796;2023-10-31T12:42:52;2.00;;;1.10;;
52934;SDS011;38802;50.198;19.796;2023-10-31T12:45:21;2.80;;;0.70;;
52934;SDS011;38802;50.198;19.796;2023-10-31T12:48:05;1.20;;;0.70;;
52934;SDS011;38802;50.198;19.796;2023-10-31T12:50:36;1.20;;;0.80;;
52934;SDS011;38802;50.198;19.796;2023-10-31T12:53:07;2.40;;;0.80;;
52934;SDS011;38802;50.198;19.796;2023-10-31T12:55:39;2.10;;;0.80;;
52934;SDS011;38802;50.198;19.796;2023-10-31T13:00:47;3.60;;;0.70;;
52934;SDS011;38802;50.198;19.796;2023-10-31T13:03:15;2.20;;;0.80;;
52934;SDS011;38802;50.198;19.796;2023-10-31T13:05:44;4.30;;;0.80;;
52934;SDS011;38802;50.198;19.796;2023-10-31T13:08:14;3.70;;;0.70;;
52934;SDS011;38802;50.198;19.796;2023-10-31T13:10:44;2.70;;;0.70;;
52934;SDS011;38802;50.198;19.796;2023-10-31T13:13:12;0.70;;;0.50;;
52934;SDS011;38802;50.198;19.796;2023-10-31T13:15:40;2.50;;;0.80;;
52934;SDS011;38802;50.198;19.796;2023-10-31T13:18:10;0.90;;;0.70;;
52934;SDS011;38802;50.198;19.796;2023-10-31T13:20:39;5.10;;;0.80;;
52934;SDS011;38802;50.198;19.796;2023-10-31T13:23:07;1.40;;;0.90;;
52934;SDS011;38802;50.198;19.796;2023-10-31T13:25:35;1.60;;;1.00;;
52934;SDS011;38802;50.198;19.796;2023-10-31T13:28:03;2.30;;;0.90;;
52934;SDS011;38802;50.198;19.796;2023-10-31T13:30:35;3.00;;;0.80;;
52934;SDS011;38802;50.198;19.796;2023-10-31T13:33:03;2.40;;;0.80;;
52934;SDS011;38802;50.198;19.796;2023-10-31T13:35:31;1.50;;;0.90;;
52934;SDS011;38802;50.198;19.796;2023-10-31T13:38:00;1.80;;;0.70;;
52934;SDS011;38802;50.198;19.796;2023-10-31T13:40:28;4.00;;;1.10;;
52934;SDS011;38802;50.198;19.796;2023-10-31T13:42:56;2.60;;;0.90;;
52934;SDS011;38802;50.198;19.796;2023-10-31T13:45:25;1.10;;;0.80;;
52934;SDS011;38802;50.198;19.796;2023-10-31T13:47:53;5.30;;;1.40;;
52934;SDS011;38802;50.198;19.796;2023-10-31T13:50:21;1.60;;;1.00;;
52934;SDS011;38802;50.198;19.796;2023-10-31T13:52:50;1.50;;;0.90;;
52934;SDS011;38802;50.198;19.796;2023-10-31T13:55:20;1.90;;;1.00;;
52934;SDS011;38802;50.198;19.796;2023-10-31T13:57:48;3.00;;;1.10;;
52934;SDS011;38802;50.198;19.796;2023-10-31T14:00:16;1.60;;;1.10;;
52934;SDS011;38802;50.198;19.796;2023-10-31T14:02:44;1.50;;;1.30;;
52934;SDS011;38802;50.198;19.796;2023-10-31T14:05:13;4.90;;;1.10;;
52934;SDS011;38802;50.198;19.796;2023-10-31T14:07:41;4.10;;;1.30;;
52934;SDS011;38802;50.198;19.796;2023-10-31T14:10:09;1.80;;;1.30;;
52934;SDS011;38802;50.198;19.796;2023-10-31T14:12:38;2.70;;;1.90;;
52934;SDS011;38802;50.198;19.796;2023-10-31T14:15:06;2.70;;;1.20;;
52934;SDS011;38802;50.198;19.796;2023-10-31T14:17:34;5.20;;;1.30;;
52934;SDS011;38802;50.198;19.796;2023-10-31T14:20:02;3.40;;;1.30;;
52934;SDS011;38802;50.198;19.796;2023-10-31T14:22:32;3.10;;;1.30;;
52934;SDS011;38802;50.198;19.796;2023-10-31T14:25:00;3.10;;;1.60;;
52934;SDS011;38802;50.198;19.796;2023-10-31T14:27:32;2.50;;;1.60;;
52934;SDS011;38802;50.198;19.796;2023-10-31T14:29:59;2.80;;;1.70;;
52934;SDS011;38802;50.198;19.796;2023-10-31T14:32:28;2.80;;;1.90;;
52934;SDS011;38802;50.198;19.796;2023-10-31T14:34:56;3.70;;;1.90;;
52934;SDS011;38802;50.198;19.796;2023-10-31T14:37:24;2.70;;;2.00;;
52934;SDS011;38802;50.198;19.796;2023-10-31T14:39:53;6.50;;;2.40;;
52934;SDS011;38802;50.198;19.796;2023-10-31T14:42:22;3.20;;;2.30;;
52934;SDS011;38802;50.198;19.796;2023-10-31T14:44:50;5.70;;;2.10;;
52934;SDS011;38802;50.198;19.796;2023-10-31T14:47:18;5.80;;;2.40;;
52934;SDS011;38802;50.198;19.796;2023-10-31T14:49:46;6.60;;;1.80;;
52934;SDS011;38802;50.198;19.796;2023-10-31T14:52:14;4.70;;;2.70;;
52934;SDS011;38802;50.198;19.796;2023-10-31T14:54:43;6.10;;;3.20;;